sim
Sign-in with your pilot id or email,
or register
Callsign
Passwort

Schedule Details

Flight Number: EWG1700 (1)
Departure: Munich Airport (EDDM) at 16:20
Arrival: Thessaloniki International Airport (LGTS) at 18:20
Route: Eurowings Passenger Schedule. Enter filed route here before submitting Pirep.

Weather Information
Getting current METAR information for EDDM 242150Z 27018G29KT 9999 -RA SCT019 BKN025 15/13 Q1004 BECMG 25010KT
Getting current METAR information for LGTS 242150Z 11005KT 9999 FEW025 19/14 Q1012 NOSIG

Schedule Frequency

Route Map